Time;durP1;ratioP1;P1;durP2;ratioP2;P2;SDS_P1;SDS_P2;PMS_P1;PMS_P2;Temp;Humidity;BMP_temperature;BMP_pressure;BME280_temperature;BME280_humidity;BME280_pressure;Samples;Min_cycle;Max_cycle;Signal;HPM_P1;HPM_P2
2023/05/01 00:01:42;;;;;;;;;;;18.80;60.80;;;;;;10185495;28;97056;-59
2023/05/01 00:06:44;;;;;;;;;;;18.80;60.80;;;;;;10155804;28;93707;-60
2023/05/01 00:11:46;;;;;;;;;;;18.80;60.70;;;;;;10172539;28;94102;-59
2023/05/01 00:16:48;;;;;;;;;;;18.70;60.70;;;;;;10172426;28;93822;-62
2023/05/01 00:21:51;;;;;;;;;;;18.70;60.60;;;;;;10173227;28;94563;-60
2023/05/01 00:26:53;;;;;;;;;;;18.70;60.60;;;;;;10172369;28;93676;-60
2023/05/01 00:31:55;;;;;;;;;;;18.70;60.50;;;;;;10172072;28;94344;-60
2023/05/01 00:36:57;;;;;;;;;;;18.70;60.50;;;;;;10173254;28;92725;-60
2023/05/01 00:41:59;;;;;;;;;;;18.70;60.50;;;;;;10172027;28;92960;-60
2023/05/01 00:47:02;;;;;;;;;;;18.70;60.40;;;;;;10171611;28;93340;-60
2023/05/01 00:52:05;;;;;;;;;;;18.70;60.40;;;;;;10169111;28;96928;-59
2023/05/01 00:57:08;;;;;;;;;;;18.60;60.30;;;;;;10170469;28;92510;-60
2023/05/01 01:02:11;;;;;;;;;;;18.60;60.30;;;;;;10154837;28;93702;-60
2023/05/01 01:07:20;;;;;;;;;;;18.60;60.30;;;;;;10171953;28;94283;-60
2023/05/01 01:12:22;;;;;;;;;;;18.60;60.20;;;;;;10170242;28;93517;-60
2023/05/01 01:17:33;;;;;;;;;;;18.60;60.10;;;;;;10186043;28;93443;-60
2023/05/01 01:22:36;;;;;;;;;;;18.60;60.10;;;;;;10170591;28;93726;-60
2023/05/01 01:27:43;;;;;;;;;;;18.60;61.00;;;;;;10170127;28;92800;-60
2023/05/01 01:32:45;;;;;;;;;;;18.60;60.00;;;;;;10171031;28;93249;-60
2023/05/01 01:38:04;;;;;;;;;;;18.50;60.00;;;;;;10169788;28;93689;-59
2023/05/01 01:43:06;;;;;;;;;;;18.50;59.90;;;;;;10167571;28;95471;-60
2023/05/01 01:48:20;;;;;;;;;;;18.50;60.00;;;;;;10170072;28;93802;-59
2023/05/01 01:53:22;;;;;;;;;;;18.50;59.90;;;;;;10169508;28;93594;-60
2023/05/01 01:58:25;;;;;;;;;;;18.50;59.80;;;;;;10169316;28;93664;-58
2023/05/01 02:03:28;;;;;;;;;;;18.50;59.90;;;;;;10168810;28;93602;-59
2023/05/01 02:08:30;;;;;;;;;;;18.50;59.80;;;;;;10168767;28;94446;-59
2023/05/01 02:13:32;;;;;;;;;;;18.40;59.80;;;;;;10168529;28;93261;-59
2023/05/01 02:18:35;;;;;;;;;;;18.40;59.80;;;;;;10168887;28;92792;-59
2023/05/01 02:23:37;;;;;;;;;;;18.40;59.60;;;;;;10168311;28;93778;-59
2023/05/01 02:28:40;;;;;;;;;;;18.40;59.70;;;;;;10168455;28;94446;-59
2023/05/01 02:33:41;;;;;;;;;;;18.40;59.70;;;;;;10165541;28;96220;-59
2023/05/01 02:38:45;;;;;;;;;;;18.40;59.70;;;;;;10168074;28;94651;-59
2023/05/01 02:43:52;;;;;;;;;;;18.40;59.70;;;;;;10167805;28;93451;-60
2023/05/01 02:48:54;;;;;;;;;;;18.40;59.60;;;;;;10167430;28;93597;-60
2023/05/01 02:53:56;;;;;;;;;;;18.40;59.60;;;;;;10167229;28;93431;-58
2023/05/01 02:58:58;;;;;;;;;;;18.30;59.60;;;;;;10182908;28;93466;-59
2023/05/01 03:04:00;;;;;;;;;;;18.40;59.70;;;;;;10181806;28;94029;-59
2023/05/01 03:09:02;;;;;;;;;;;18.30;59.50;;;;;;10168149;28;93577;-59
2023/05/01 03:14:04;;;;;;;;;;;18.30;59.50;;;;;;10182327;28;93432;-59
2023/05/01 03:19:06;;;;;;;;;;;18.30;59.40;;;;;;10151782;28;93694;-60
2023/05/01 03:24:08;;;;;;;;;;;18.40;59.50;;;;;;10171841;28;95915;-60
2023/05/01 03:29:12;;;;;;;;;;;18.40;59.40;;;;;;10173323;28;94484;-60
2023/05/01 03:34:13;;;;;;;;;;;18.40;59.40;;;;;;10173886;28;94653;-60
2023/05/01 03:39:15;;;;;;;;;;;18.40;59.30;;;;;;10173216;28;93382;-60
2023/05/01 03:44:17;;;;;;;;;;;18.30;59.20;;;;;;10172752;28;94607;-60
2023/05/01 05:08:08;;;;;;;;;;;18.20;58.70;;;;;;10251667;28;94935;-60
2023/05/01 05:13:09;;;;;;;;;;;18.20;58.60;;;;;;10252128;28;94049;-61
2023/05/01 05:18:11;;;;;;;;;;;18.20;58.60;;;;;;10251535;28;93005;-60
2023/05/01 05:23:13;;;;;;;;;;;18.20;58.60;;;;;;10248044;28;95813;-60
2023/05/01 05:28:15;;;;;;;;;;;18.20;58.70;;;;;;10250747;28;94481;-60
2023/05/01 05:33:16;;;;;;;;;;;18.10;58.60;;;;;;10250614;28;93911;-61
2023/05/01 05:38:19;;;;;;;;;;;18.10;58.60;;;;;;10232319;28;93676;-61
2023/05/01 05:43:20;;;;;;;;;;;18.10;58.60;;;;;;10250834;28;94417;-61
2023/05/01 05:48:23;;;;;;;;;;;18.10;58.60;;;;;;10219140;28;93757;-60
2023/05/01 05:53:24;;;;;;;;;;;18.10;58.60;;;;;;10209669;28;94295;-61
2023/05/01 05:58:27;;;;;;;;;;;18.10;58.60;;;;;;10210948;28;93894;-61
2023/05/01 06:03:28;;;;;;;;;;;18.10;59.60;;;;;;10209254;28;95373;-63
2023/05/01 06:08:31;;;;;;;;;;;18.10;60.40;;;;;;10209054;28;93446;-62
2023/05/01 06:13:33;;;;;;;;;;;18.20;60.60;;;;;;10218923;28;95652;-65
2023/05/01 06:18:35;;;;;;;;;;;18.20;60.80;;;;;;10248225;28;92924;-63
2023/05/01 06:23:37;;;;;;;;;;;18.30;61.00;;;;;;10246719;28;95169;-62
2023/05/01 06:28:39;;;;;;;;;;;18.40;61.00;;;;;;10245232;28;94070;-63
2023/05/01 06:33:40;;;;;;;;;;;18.40;61.10;;;;;;10244745;28;93900;-63
2023/05/01 06:38:47;;;;;;;;;;;18.50;61.20;;;;;;10243099;28;93438;-63
2023/05/01 06:43:49;;;;;;;;;;;18.50;61.30;;;;;;10226636;28;94615;-62
2023/05/01 06:48:51;;;;;;;;;;;18.50;61.00;;;;;;10243317;28;93615;-63
2023/05/01 06:53:53;;;;;;;;;;;18.60;61.30;;;;;;10247327;28;93979;-62
2023/05/01 06:58:54;;;;;;;;;;;18.60;61.20;;;;;;10231228;28;92714;-63
2023/05/01 07:03:56;;;;;;;;;;;18.60;61.10;;;;;;10244452;28;95754;-62
2023/05/01 07:08:58;;;;;;;;;;;18.70;61.10;;;;;;10248256;28;94674;-62
2023/05/01 07:14:00;;;;;;;;;;;18.70;60.90;;;;;;10247010;28;93547;-63
2023/05/01 07:19:01;;;;;;;;;;;18.70;60.30;;;;;;10247497;28;93398;-62
2023/05/01 07:24:03;;;;;;;;;;;18.60;56.40;;;;;;10228691;28;93117;-63
2023/05/01 07:29:05;;;;;;;;;;;18.60;55.40;;;;;;10246982;28;94211;-63
2023/05/01 07:34:07;;;;;;;;;;;18.50;54.20;;;;;;10246593;28;93339;-63
2023/05/01 07:39:08;;;;;;;;;;;18.50;54.50;;;;;;10248315;28;94271;-63
2023/05/01 07:44:10;;;;;;;;;;;18.50;54.50;;;;;;10246084;28;93438;-63
2023/05/01 07:49:12;;;;;;;;;;;18.40;54.60;;;;;;10245785;28;93225;-62
2023/05/01 07:54:15;;;;;;;;;;;18.50;54.80;;;;;;10244287;28;95969;-62
2023/05/01 07:59:16;;;;;;;;;;;18.50;55.00;;;;;;10246556;28;93494;-62
2023/05/01 08:04:21;;;;;;;;;;;18.50;54.70;;;;;;10248152;28;93019;-62
2023/05/01 08:09:23;;;;;;;;;;;18.40;54.50;;;;;;10253658;28;94476;-62
2023/05/01 08:14:25;;;;;;;;;;;18.40;54.40;;;;;;10252582;28;94907;-62
2023/05/01 08:19:27;;;;;;;;;;;18.40;53.60;;;;;;10235285;28;94236;-62
2023/05/01 08:24:29;;;;;;;;;;;18.40;54.10;;;;;;10252036;28;94455;-61
2023/05/01 08:29:31;;;;;;;;;;;18.40;54.60;;;;;;10253917;28;92535;-62
2023/05/01 08:34:32;;;;;;;;;;;18.50;55.30;;;;;;10251771;28;94772;-62
2023/05/01 08:39:34;;;;;;;;;;;18.60;55.70;;;;;;10252750;28;93965;-62
2023/05/01 08:44:37;;;;;;;;;;;18.60;56.30;;;;;;10249641;28;96804;-63
2023/05/01 08:49:40;;;;;;;;;;;18.70;56.80;;;;;;10251145;28;93662;-63
2023/05/01 08:54:42;;;;;;;;;;;18.70;57.10;;;;;;10234230;28;94400;-63
2023/05/01 08:59:45;;;;;;;;;;;18.70;57.30;;;;;;10234685;28;93282;-62
2023/05/01 09:04:48;;;;;;;;;;;18.70;57.30;;;;;;10251775;28;94281;-62
2023/05/01 09:09:50;;;;;;;;;;;18.70;57.30;;;;;;10250990;28;94782;-63
2023/05/01 09:14:53;;;;;;;;;;;18.60;57.30;;;;;;10251204;28;94572;-62
2023/05/01 09:19:54;;;;;;;;;;;18.60;57.40;;;;;;10233737;28;93590;-61
2023/05/01 09:24:57;;;;;;;;;;;18.60;57.60;;;;;;10251465;28;94375;-63
2023/05/01 09:29:59;;;;;;;;;;;18.60;57.80;;;;;;10250083;28;92849;-62
2023/05/01 09:35:08;;;;;;;;;;;18.60;57.80;;;;;;10247546;28;95546;-62
2023/05/01 09:40:11;;;;;;;;;;;18.60;57.90;;;;;;10250198;28;93395;-62
2023/05/01 09:45:13;;;;;;;;;;;18.60;58.00;;;;;;10250594;28;93619;-62
2023/05/01 09:50:31;;;;;;;;;;;18.60;58.20;;;;;;10250183;28;93390;-63
2023/05/01 09:55:33;;;;;;;;;;;18.60;58.80;;;;;;10249580;28;94371;-62
2023/05/01 10:00:50;;;;;;;;;;;18.70;59.10;;;;;;10232518;28;94320;-62
2023/05/01 10:05:55;;;;;;;;;;;18.70;59.30;;;;;;10232576;28;94301;-62
2023/05/01 10:11:04;;;;;;;;;;;18.80;59.20;;;;;;10250398;28;92946;-62
2023/05/01 10:16:09;;;;;;;;;;;18.90;59.30;;;;;;10232354;28;94885;-63
2023/05/01 10:21:15;;;;;;;;;;;18.90;59.40;;;;;;10249401;28;93509;-63
2023/05/01 10:26:17;;;;;;;;;;;18.90;59.40;;;;;;10246905;28;96871;-63
2023/05/01 10:31:19;;;;;;;;;;;18.90;59.50;;;;;;10249024;28;93582;-63
2023/05/01 10:36:25;;;;;;;;;;;19.00;59.70;;;;;;10248292;28;93512;-62
2023/05/01 10:41:47;;;;;;;;;;;19.00;59.70;;;;;;10231579;28;92876;-62
2023/05/01 10:46:48;;;;;;;;;;;19.00;59.70;;;;;;10248404;28;93481;-64
2023/05/01 10:52:03;;;;;;;;;;;19.10;60.20;;;;;;10230817;28;93780;-64
2023/05/01 10:57:05;;;;;;;;;;;19.20;62.60;;;;;;10247746;28;93917;-63
2023/05/01 11:02:20;;;;;;;;;;;19.30;61.30;;;;;;10248340;28;92813;-63
2023/05/01 11:07:22;;;;;;;;;;;19.30;61.00;;;;;;10247844;28;94759;-63
2023/05/01 11:12:43;;;;;;;;;;;19.30;61.00;;;;;;10214689;28;93482;-63
2023/05/01 11:17:48;;;;;;;;;;;19.40;60.90;;;;;;10227161;28;116381;-63
2023/05/01 11:22:51;;;;;;;;;;;19.40;61.10;;;;;;10248921;28;94512;-63
2023/05/01 11:27:53;;;;;;;;;;;19.40;61.10;;;;;;10247466;28;94427;-64
2023/05/01 11:32:55;;;;;;;;;;;19.40;61.20;;;;;;10246291;28;93636;-65
2023/05/01 11:37:57;;;;;;;;;;;19.40;62.30;;;;;;10246844;28;94703;-64
2023/05/01 11:43:03;;;;;;;;;;;19.40;61.30;;;;;;10252973;28;94383;-64
2023/05/01 11:48:12;;;;;;;;;;;19.40;61.30;;;;;;10236170;28;93558;-64
2023/05/01 11:53:14;;;;;;;;;;;19.40;61.70;;;;;;10238668;28;93142;-64
2023/05/01 11:58:16;;;;;;;;;;;19.50;61.80;;;;;;10237960;28;95990;-63
2023/05/01 12:03:19;;;;;;;;;;;19.50;61.50;;;;;;10254746;28;93766;-64
2023/05/01 12:08:22;;;;;;;;;;;19.50;61.60;;;;;;10235172;28;96939;-64
2023/05/01 12:13:25;;;;;;;;;;;19.50;61.60;;;;;;10235957;28;93991;-64
2023/05/01 12:18:27;;;;;;;;;;;19.60;61.60;;;;;;10253366;28;93617;-64
2023/05/01 12:23:30;;;;;;;;;;;19.60;61.70;;;;;;10252869;28;93332;-64
2023/05/01 12:28:32;;;;;;;;;;;19.60;61.50;;;;;;10254289;28;94308;-65
2023/05/01 12:33:34;;;;;;;;;;;19.60;61.60;;;;;;10252892;28;93402;-64
2023/05/01 12:38:35;;;;;;;;;;;19.60;61.60;;;;;;10251798;28;93559;-64
2023/05/01 12:43:37;;;;;;;;;;;19.60;61.70;;;;;;10254405;28;93702;-64
2023/05/01 12:48:40;;;;;;;;;;;19.60;59.80;;;;;;10253084;28;94450;-64
2023/05/01 12:53:42;;;;;;;;;;;19.50;56.80;;;;;;10251252;28;93549;-64
2023/05/01 12:58:44;;;;;;;;;;;19.40;55.20;;;;;;10232607;28;95660;-64
2023/05/01 13:03:46;;;;;;;;;;;19.30;54.10;;;;;;10252265;28;92744;-64
2023/05/01 13:08:48;;;;;;;;;;;19.20;53.50;;;;;;10252907;28;94822;-64
2023/05/01 13:13:50;;;;;;;;;;;19.10;52.60;;;;;;10252243;28;94703;-63
2023/05/01 13:18:52;;;;;;;;;;;19.10;52.30;;;;;;10252241;28;94474;-64
2023/05/01 13:23:55;;;;;;;;;;;18.90;51.90;;;;;;10251309;28;93001;-63
2023/05/01 13:28:58;;;;;;;;;;;18.90;51.70;;;;;;10218133;28;94072;-64
2023/05/01 13:34:02;;;;;;;;;;;18.90;51.90;;;;;;10252774;28;92847;-64
2023/05/01 13:39:04;;;;;;;;;;;18.80;52.10;;;;;;10251532;28;95184;-65
2023/05/01 13:44:06;;;;;;;;;;;18.80;52.40;;;;;;10252024;28;93838;-65
2023/05/01 13:49:07;;;;;;;;;;;18.80;52.60;;;;;;10248355;28;96008;-65
2023/05/01 13:54:10;;;;;;;;;;;18.80;53.20;;;;;;10250448;28;93763;-64
2023/05/01 13:59:11;;;;;;;;;;;18.80;53.20;;;;;;10250553;28;93448;-63
2023/05/01 14:04:17;;;;;;;;;;;18.80;53.40;;;;;;10250273;28;94120;-63
2023/05/01 14:09:19;;;;;;;;;;;18.80;53.70;;;;;;10249242;28;94062;-63
2023/05/01 14:14:20;;;;;;;;;;;18.80;54.40;;;;;;10249662;28;93650;-63
2023/05/01 14:19:22;;;;;;;;;;;18.90;55.70;;;;;;10249252;28;94331;-62
2023/05/01 14:24:26;;;;;;;;;;;19.00;56.00;;;;;;10250420;28;92829;-63
2023/05/01 14:29:28;;;;;;;;;;;19.00;59.40;;;;;;10249375;28;93573;-63
2023/05/01 14:34:30;;;;;;;;;;;19.10;57.40;;;;;;10232858;28;94403;-63
2023/05/01 14:39:32;;;;;;;;;;;19.20;57.30;;;;;;10247254;28;96015;-63
2023/05/01 14:44:37;;;;;;;;;;;19.20;57.50;;;;;;10248250;28;93481;-62
2023/05/01 14:49:39;;;;;;;;;;;19.20;58.50;;;;;;10247285;28;93546;-62
2023/05/01 14:54:45;;;;;;;;;;;19.30;60.10;;;;;;10248279;28;93570;-62
2023/05/01 14:59:46;;;;;;;;;;;19.30;59.80;;;;;;10248326;28;92559;-62
2023/05/01 15:04:48;;;;;;;;;;;19.30;60.20;;;;;;10247655;28;94151;-63
2023/05/01 15:09:50;;;;;;;;;;;19.30;60.20;;;;;;10247713;28;94436;-63
2023/05/01 15:14:52;;;;;;;;;;;19.40;61.10;;;;;;10250944;28;92783;-63
2023/05/01 15:19:54;;;;;;;;;;;19.40;61.30;;;;;;10254436;28;94248;-62
2023/05/01 15:24:56;;;;;;;;;;;19.50;61.80;;;;;;10255684;28;94891;-63
2023/05/01 15:29:58;;;;;;;;;;;19.60;61.70;;;;;;10252864;28;96974;-65
2023/05/01 15:35:00;;;;;;;;;;;19.70;61.50;;;;;;10237171;28;94494;-61
2023/05/01 15:40:03;;;;;;;;;;;19.80;61.60;;;;;;10253530;28;93429;-64
2023/05/01 15:45:05;;;;;;;;;;;19.90;62.10;;;;;;10254645;28;93517;-64
2023/05/01 15:50:08;;;;;;;;;;;20.00;61.20;;;;;;10253059;28;93146;-64
2023/05/01 15:55:10;;;;;;;;;;;20.10;61.20;;;;;;10237448;28;94051;-63
2023/05/01 16:00:13;;;;;;;;;;;20.10;61.30;;;;;;10253093;28;93220;-64
2023/05/01 16:05:17;;;;;;;;;;;20.10;61.50;;;;;;10254420;28;93759;-63
2023/05/01 16:10:19;;;;;;;;;;;20.10;61.30;;;;;;10253783;28;92630;-64
2023/05/01 16:15:21;;;;;;;;;;;20.10;61.90;;;;;;10252651;28;93865;-63
2023/05/01 16:20:23;;;;;;;;;;;20.20;62.40;;;;;;10251867;28;96017;-64
2023/05/01 16:25:25;;;;;;;;;;;20.50;61.00;;;;;;10253009;28;92875;-65
2023/05/01 16:30:27;;;;;;;;;;;20.50;60.80;;;;;;10234251;28;93309;-65
2023/05/01 16:35:28;;;;;;;;;;;20.40;62.90;;;;;;10253905;28;93986;-65
2023/05/01 16:40:30;;;;;;;;;;;21.10;61.90;;;;;;10251661;28;93465;-64
2023/05/01 16:45:32;;;;;;;;;;;21.10;61.10;;;;;;10253087;28;93150;-64
2023/05/01 16:50:37;;;;;;;;;;;21.00;61.70;;;;;;10252138;28;94479;-64
2023/05/01 16:55:38;;;;;;;;;;;20.80;62.60;;;;;;10253862;28;92705;-64
2023/05/01 17:00:41;;;;;;;;;;;20.70;62.80;;;;;;10251454;28;95397;-64
2023/05/01 17:05:43;;;;;;;;;;;20.50;63.00;;;;;;10251446;28;93542;-65
2023/05/01 17:10:45;;;;;;;;;;;20.40;63.40;;;;;;10248789;28;96778;-65
2023/05/01 17:15:47;;;;;;;;;;;20.40;63.70;;;;;;10251291;28;94534;-64
2023/05/01 17:20:49;;;;;;;;;;;20.30;63.80;;;;;;10251083;28;93022;-64
2023/05/01 17:25:50;;;;;;;;;;;20.20;64.10;;;;;;10253142;28;93812;-64
2023/05/01 17:30:52;;;;;;;;;;;20.20;64.30;;;;;;10251684;28;94171;-65
2023/05/01 17:35:56;;;;;;;;;;;20.20;64.30;;;;;;10251123;28;94261;-65
2023/05/01 17:40:57;;;;;;;;;;;20.20;64.40;;;;;;10250960;28;93573;-64
2023/05/01 17:45:59;;;;;;;;;;;20.10;64.40;;;;;;10250596;28;92807;-65
2023/05/01 17:51:01;;;;;;;;;;;20.10;64.60;;;;;;10249109;28;93712;-64
2023/05/01 17:56:03;;;;;;;;;;;20.00;64.60;;;;;;10251126;28;94570;-64
2023/05/01 18:01:05;;;;;;;;;;;20.00;64.70;;;;;;10247316;28;95500;-64
2023/05/01 18:06:07;;;;;;;;;;;20.00;64.90;;;;;;10232762;28;93541;-64
2023/05/01 18:11:09;;;;;;;;;;;19.90;64.90;;;;;;10249659;28;93584;-64
2023/05/01 18:16:11;;;;;;;;;;;19.90;64.90;;;;;;10249144;28;93621;-63
2023/05/01 18:21:13;;;;;;;;;;;19.80;64.90;;;;;;10248767;28;93672;-64
2023/05/01 18:26:15;;;;;;;;;;;19.80;65.00;;;;;;10231945;28;93726;-64
2023/05/01 18:31:17;;;;;;;;;;;19.80;65.00;;;;;;10249392;28;93486;-64
2023/05/01 18:36:19;;;;;;;;;;;19.80;64.50;;;;;;10251482;28;93127;-64
2023/05/01 18:41:21;;;;;;;;;;;19.70;64.40;;;;;;10249536;28;93041;-64
2023/05/01 18:46:23;;;;;;;;;;;19.70;64.30;;;;;;10232866;28;94068;-64
2023/05/01 18:51:25;;;;;;;;;;;19.70;64.40;;;;;;10245450;28;96196;-63
2023/05/01 18:56:27;;;;;;;;;;;19.60;64.10;;;;;;10230791;28;93554;-64
2023/05/01 19:01:29;;;;;;;;;;;19.60;64.10;;;;;;10232186;28;93470;-63
2023/05/01 19:06:31;;;;;;;;;;;19.60;64.10;;;;;;10248924;28;94505;-64
2023/05/01 19:11:33;;;;;;;;;;;19.50;63.80;;;;;;10249294;28;94588;-64
2023/05/01 19:16:34;;;;;;;;;;;19.50;63.80;;;;;;10248927;28;94200;-64
2023/05/01 19:21:36;;;;;;;;;;;19.50;63.80;;;;;;10230233;28;93351;-64
2023/05/01 19:26:38;;;;;;;;;;;19.50;63.80;;;;;;10231500;28;92354;-64
2023/05/01 19:31:40;;;;;;;;;;;19.40;63.90;;;;;;10247653;28;93649;-63
2023/05/01 19:36:42;;;;;;;;;;;19.40;63.90;;;;;;10247973;28;93611;-64
2023/05/01 19:41:43;;;;;;;;;;;19.40;64.00;;;;;;10244757;28;95895;-64
2023/05/01 19:46:45;;;;;;;;;;;19.40;64.10;;;;;;10247154;28;93483;-64
2023/05/01 19:51:47;;;;;;;;;;;19.40;64.10;;;;;;10246477;28;93325;-64
2023/05/01 19:56:50;;;;;;;;;;;19.30;64.10;;;;;;10247714;28;92532;-64
2023/05/01 20:01:52;;;;;;;;;;;19.30;64.20;;;;;;10250549;28;93115;-64
2023/05/01 20:06:54;;;;;;;;;;;19.30;64.30;;;;;;10237008;28;93999;-63
2023/05/01 20:11:56;;;;;;;;;;;19.30;64.30;;;;;;10253930;28;93798;-64
2023/05/01 20:16:58;;;;;;;;;;;19.30;64.30;;;;;;10238258;28;93493;-64
2023/05/01 20:22:00;;;;;;;;;;;19.30;64.00;;;;;;10235379;28;93481;-64
2023/05/01 20:27:02;;;;;;;;;;;19.20;64.80;;;;;;10253371;28;93530;-64
2023/05/01 20:32:04;;;;;;;;;;;19.30;64.20;;;;;;10233226;28;96677;-64
2023/05/01 20:37:06;;;;;;;;;;;19.20;64.20;;;;;;10220812;28;93523;-64
2023/05/01 20:42:07;;;;;;;;;;;19.20;64.10;;;;;;10252182;28;93748;-64
2023/05/01 20:47:09;;;;;;;;;;;19.20;64.30;;;;;;10252256;28;93998;-64
2023/05/01 20:52:11;;;;;;;;;;;19.20;64.20;;;;;;10251149;28;93809;-63
2023/05/01 20:57:14;;;;;;;;;;;19.20;64.30;;;;;;10251884;28;93660;-63
2023/05/01 21:02:16;;;;;;;;;;;19.10;64.30;;;;;;10251457;28;93556;-63
2023/05/01 21:07:18;;;;;;;;;;;19.10;64.30;;;;;;10252754;28;93041;-63
2023/05/01 21:12:20;;;;;;;;;;;19.10;64.30;;;;;;10217340;28;94302;-64
2023/05/01 21:17:22;;;;;;;;;;;19.10;64.30;;;;;;10252249;28;94517;-63
2023/05/01 21:22:24;;;;;;;;;;;19.10;64.40;;;;;;10249412;28;96043;-64
2023/05/01 21:27:26;;;;;;;;;;;19.10;64.40;;;;;;10251396;28;95964;-63
2023/05/01 21:32:31;;;;;;;;;;;19.10;64.40;;;;;;10250824;28;93520;-63
2023/05/01 21:37:33;;;;;;;;;;;19.10;64.30;;;;;;10249788;28;93531;-63
2023/05/01 21:42:36;;;;;;;;;;;19.10;64.40;;;;;;10250381;28;94106;-63
2023/05/01 21:47:49;;;;;;;;;;;19.10;64.40;;;;;;10250295;28;94241;-64
2023/05/01 21:52:51;;;;;;;;;;;19.10;64.30;;;;;;10250399;28;93731;-64
2023/05/01 21:57:53;;;;;;;;;;;19.10;64.40;;;;;;10249991;28;92722;-64
2023/05/01 22:02:55;;;;;;;;;;;19.10;64.50;;;;;;10250716;28;94435;-63
2023/05/01 22:07:57;;;;;;;;;;;19.10;64.40;;;;;;10232132;28;93386;-63
2023/05/01 22:12:59;;;;;;;;;;;19.10;64.30;;;;;;10247789;28;96879;-64
2023/05/01 22:18:01;;;;;;;;;;;19.10;64.30;;;;;;10250483;28;93666;-65
2023/05/01 22:23:03;;;;;;;;;;;19.10;64.20;;;;;;10250280;28;94989;-65
2023/05/01 22:28:04;;;;;;;;;;;19.10;64.20;;;;;;10232685;28;94373;-64
2023/05/01 22:33:06;;;;;;;;;;;19.10;64.10;;;;;;10252113;28;93392;-64
2023/05/01 22:38:08;;;;;;;;;;;19.10;64.10;;;;;;10252064;28;94516;-64
2023/05/01 22:43:09;;;;;;;;;;;19.10;64.10;;;;;;10248554;28;93410;-64
2023/05/01 22:48:11;;;;;;;;;;;19.10;64.00;;;;;;10249409;28;95096;-64
2023/05/01 22:53:13;;;;;;;;;;;19.10;63.90;;;;;;10249776;28;93715;-64
2023/05/01 22:58:15;;;;;;;;;;;19.00;63.70;;;;;;10248849;28;94620;-64
2023/05/01 23:03:17;;;;;;;;;;;19.10;63.70;;;;;;10247245;28;97037;-64
2023/05/01 23:08:19;;;;;;;;;;;19.00;63.50;;;;;;10248329;28;92697;-64
2023/05/01 23:13:22;;;;;;;;;;;19.00;63.60;;;;;;10248686;28;94813;-64
2023/05/01 23:18:28;;;;;;;;;;;18.90;63.40;;;;;;10231193;28;94451;-64
2023/05/01 23:23:33;;;;;;;;;;;18.90;63.50;;;;;;10248535;28;93451;-64
2023/05/01 23:28:39;;;;;;;;;;;18.90;63.40;;;;;;10231691;28;93310;-64
2023/05/01 23:33:41;;;;;;;;;;;18.90;63.30;;;;;;10248131;28;92790;-64
2023/05/01 23:38:42;;;;;;;;;;;18.90;63.30;;;;;;10254701;28;92730;-64
2023/05/01 23:43:46;;;;;;;;;;;18.90;63.30;;;;;;10254739;28;92986;-64
2023/05/01 23:48:48;;;;;;;;;;;18.80;63.20;;;;;;10254485;28;94606;-64
2023/05/01 23:53:50;;;;;;;;;;;18.90;63.20;;;;;;10251958;28;96789;-64
2023/05/01 23:58:52;;;;;;;;;;;18.80;63.10;;;;;;10254068;28;94624;-64
